Terminal Aerodrome Forecast
Issued by NWS Knoxville/Tri Cities, TN

Home | Current Version | Previous Version | Text Only | Print | Product List | Glossary On
Versions: 1 2 3 4 5 6 7 8 9 10 11 12 13 14 15 16 17 18 19 20 21 22 23 24 25 26 27 28
000
FTUS44 KMRX 141720
TAFTRI
TAF
KTRI 141720Z 1418/1518 08006KT P6SM OVC060
     FM142100 08008KT 2SM -SN OVC040
      TEMPO 1421/1501 1SM -SN OVC030
     FM150100 06006KT 3SM -SN OVC025
     FM150900 09008KT 5SM -FZRAPL SCT030 OVC050
     FM151400 12008KT 5SM -RA OVC060=

USA.gov is the U.S. government's official web portal to all federal, state and local government web resources and services.